createdAt,value
2018-11-26T00:01:15.344Z,80.07
2018-11-26T00:03:43.676Z,80.13
2018-11-26T00:06:12.256Z,80.00
2018-11-26T00:08:40.042Z,80.12
2018-11-26T00:11:16.043Z,80.12
2018-11-26T00:13:45.829Z,80.43
2018-11-26T00:16:15.087Z,80.57
2018-11-26T00:18:42.842Z,80.64
2018-11-26T00:21:12.033Z,80.64
2018-11-26T00:23:40.135Z,80.66
2018-11-26T00:26:08.061Z,80.67
2018-11-26T00:28:36.780Z,80.42
2018-11-26T00:31:05.108Z,80.47
2018-11-26T00:33:32.865Z,80.43
2018-11-26T00:36:01.193Z,80.35
2018-11-26T00:38:29.842Z,80.29
2018-11-26T00:40:58.860Z,80.21
2018-11-26T00:43:26.611Z,80.05
2018-11-26T00:45:54.932Z,80.07
2018-11-26T00:48:23.827Z,79.96
2018-11-26T00:50:52.529Z,80.09
2018-11-26T00:53:21.057Z,79.97
2018-11-26T00:55:48.804Z,79.79
2018-11-26T00:58:17.166Z,79.94
2018-11-26T01:00:46.091Z,80.04
2018-11-26T01:03:14.430Z,80.10
2018-11-26T01:05:42.170Z,80.08
2018-11-26T01:08:10.497Z,79.95
2018-11-26T01:10:39.413Z,80.07
2018-11-26T01:13:07.715Z,79.80
2018-11-26T01:15:36.029Z,79.74
2018-11-26T01:18:04.350Z,79.16
2018-11-26T01:20:32.094Z,78.74
2018-11-26T01:23:00.999Z,78.27
2018-11-26T01:25:28.738Z,77.90
2018-11-26T01:27:57.629Z,77.59
2018-11-26T01:30:25.378Z,77.49
2018-11-26T01:32:53.676Z,77.42
2018-11-26T01:35:22.576Z,77.69
2018-11-26T01:37:50.902Z,77.59
2018-11-26T01:40:18.642Z,77.36
2018-11-26T01:42:47.550Z,77.13
2018-11-26T01:45:15.531Z,76.98
2018-11-26T01:47:44.466Z,77.13
2018-11-26T01:50:12.208Z,76.62
2018-11-26T01:52:40.513Z,76.25
2018-11-26T01:55:09.406Z,75.84
2018-11-26T01:57:37.719Z,75.85
2018-11-26T02:00:05.451Z,75.58
2018-11-26T02:02:34.369Z,75.67
2018-11-26T02:05:02.101Z,75.95
2018-11-26T02:07:30.989Z,75.89
2018-11-26T02:09:58.720Z,75.76
2018-11-26T02:12:27.353Z,75.82
2018-11-26T02:14:55.345Z,75.90
2018-11-26T02:17:24.237Z,75.87
2018-11-26T02:19:51.979Z,75.97
2018-11-26T02:22:20.876Z,75.93
2018-11-26T02:24:48.614Z,75.99
2018-11-26T02:27:17.511Z,76.00
2018-11-26T02:29:45.252Z,75.85
2018-11-26T02:32:14.132Z,75.54
2018-11-26T02:34:42.446Z,75.50
2018-11-26T02:37:10.765Z,75.62
2018-11-26T02:39:39.089Z,75.54
2018-11-26T02:42:06.835Z,75.71
2018-11-26T02:44:35.726Z,75.76
2018-11-26T02:47:03.459Z,75.78
2018-11-26T02:49:32.351Z,75.74
2018-11-26T02:52:00.667Z,76.00
2018-11-26T02:54:28.998Z,76.17
2018-11-26T02:56:57.589Z,76.41
2018-11-26T02:59:25.901Z,76.49
2018-11-26T03:01:54.224Z,76.46
2018-11-26T03:04:22.569Z,76.55
2018-11-26T03:06:50.306Z,76.83
2018-11-26T03:09:19.213Z,76.86
2018-11-26T03:11:47.525Z,76.82
2018-11-26T03:14:15.262Z,76.84
2018-11-26T03:16:44.171Z,76.69
2018-11-26T03:19:12.482Z,76.78
2018-11-26T03:21:40.809Z,76.87
2018-11-26T03:24:09.138Z,76.89
2018-11-26T03:26:36.892Z,76.92
2018-11-26T03:29:06.121Z,76.98
2018-11-26T03:31:33.866Z,77.10
2018-11-26T03:34:02.987Z,77.29
2018-11-26T03:36:31.313Z,77.45
2018-11-26T03:38:59.627Z,77.54
2018-11-26T03:41:27.370Z,77.60
2018-11-26T03:43:55.683Z,77.63
2018-11-26T03:46:24.587Z,77.90
2018-11-26T03:48:52.330Z,78.37
2018-11-26T03:51:20.655Z,78.46
2018-11-26T03:53:49.149Z,78.72
2018-11-26T03:56:17.884Z,79.01
2018-11-26T03:58:46.200Z,79.32
2018-11-26T04:01:14.529Z,79.87
2018-11-26T04:03:42.849Z,79.97
2018-11-26T04:06:10.661Z,80.12
2018-11-26T04:08:38.938Z,80.01
2018-11-26T04:11:07.840Z,79.99
2018-11-26T04:13:35.590Z,80.17
2018-11-26T04:16:04.486Z,80.58
2018-11-26T04:18:32.827Z,80.60
2018-11-26T04:21:00.621Z,80.68
2018-11-26T04:23:29.499Z,80.59
2018-11-26T04:25:57.832Z,80.77
2018-11-26T04:28:26.153Z,80.91
2018-11-26T04:30:53.891Z,80.87
2018-11-26T04:33:22.801Z,80.83
2018-11-26T04:35:50.546Z,81.11
2018-11-26T04:38:18.882Z,81.23
2018-11-26T04:40:47.209Z,81.31
2018-11-26T04:43:16.113Z,81.16
2018-11-26T04:45:44.442Z,80.66
2018-11-26T04:48:12.191Z,80.54
2018-11-26T04:50:41.107Z,81.08
2018-11-26T04:53:09.765Z,81.14
2018-11-26T04:55:38.089Z,81.74
2018-11-26T04:58:06.411Z,81.56
2018-11-26T05:00:34.745Z,81.29
2018-11-26T05:03:03.082Z,81.42
2018-11-26T05:05:31.416Z,81.45
2018-11-26T05:08:00.365Z,81.78
2018-11-26T05:10:28.117Z,81.79
2018-11-26T05:12:56.446Z,81.72
2018-11-26T05:15:25.672Z,82.03
2018-11-26T05:17:54.002Z,82.26
2018-11-26T05:20:21.753Z,82.13
2018-11-26T05:22:50.655Z,82.61
2018-11-26T05:25:18.407Z,82.62
2018-11-26T05:27:46.730Z,82.35
2018-11-26T05:30:15.213Z,82.27
2018-11-26T05:32:43.961Z,82.37
2018-11-26T05:35:12.290Z,82.14
2018-11-26T05:37:40.052Z,82.52
2018-11-26T05:40:09.268Z,82.40
2018-11-26T05:42:37.009Z,82.46
2018-11-26T05:45:05.336Z,82.52
2018-11-26T05:47:34.238Z,82.67
2018-11-26T05:50:01.983Z,82.82
2018-11-26T05:52:30.306Z,82.49
2018-11-26T05:54:58.621Z,82.55
2018-11-26T05:57:27.531Z,82.67
2018-11-26T05:59:55.282Z,82.87
2018-11-26T06:02:24.170Z,82.53
2018-11-26T06:04:52.498Z,82.56
2018-11-26T06:07:21.163Z,82.44
2018-11-26T06:09:49.505Z,82.30
2018-11-26T06:12:17.828Z,82.63
2018-11-26T06:14:45.571Z,83.08
2018-11-26T06:17:14.197Z,82.84
2018-11-26T06:19:42.561Z,82.62
2018-11-26T06:22:10.846Z,82.45
2018-11-26T06:24:39.749Z,82.04
2018-11-26T06:27:07.498Z,82.00
2018-11-26T06:29:36.411Z,81.94
2018-11-26T06:32:04.744Z,82.33
2018-11-26T06:34:33.073Z,81.96
2018-11-26T06:37:01.404Z,81.61
2018-11-26T06:39:29.153Z,82.09
2018-11-26T06:41:58.075Z,82.52
2018-11-26T06:44:26.409Z,83.04
2018-11-26T06:46:54.151Z,83.11
2018-11-26T06:49:23.050Z,83.25
2018-11-26T06:51:50.874Z,83.31
2018-11-26T06:54:19.152Z,83.58
2018-11-26T06:56:47.471Z,84.04
2018-11-26T06:59:16.372Z,83.77
2018-11-26T07:01:44.690Z,83.61
2018-11-26T07:04:12.549Z,83.84
2018-11-26T07:06:41.348Z,84.10
2018-11-26T07:09:09.103Z,84.04
2018-11-26T07:11:38.033Z,83.55
2018-11-26T07:14:06.377Z,83.66
2018-11-26T07:16:34.682Z,83.89
2018-11-26T07:19:02.439Z,83.63
2018-11-26T07:21:30.816Z,84.03
2018-11-26T07:23:59.663Z,84.23
2018-11-26T07:26:27.990Z,84.44
2018-11-26T07:28:56.314Z,84.61
2018-11-26T07:31:24.639Z,84.32
2018-11-26T07:33:52.380Z,84.24
2018-11-26T07:36:21.288Z,84.20
2018-11-26T07:38:49.612Z,84.27
2018-11-26T07:41:17.355Z,84.44
2018-11-26T07:43:46.270Z,84.72
2018-11-26T07:46:14.590Z,84.73
2018-11-26T07:48:42.354Z,84.82
2018-11-26T07:51:11.274Z,84.98
2018-11-26T07:53:39.025Z,85.29
2018-11-26T07:56:07.935Z,85.25
2018-11-26T07:58:36.258Z,85.08
2018-11-26T08:01:04.580Z,84.59
2018-11-26T08:03:32.957Z,84.31
2018-11-26T08:06:02.366Z,84.11
2018-11-26T08:08:29.597Z,84.06
2018-11-26T08:10:57.357Z,83.78
2018-11-26T08:13:26.319Z,83.76
2018-11-26T08:15:54.655Z,83.45
2018-11-26T08:18:22.980Z,83.35
2018-11-26T08:20:51.317Z,83.55
2018-11-26T08:23:19.068Z,83.87
2018-11-26T08:25:47.417Z,83.73
2018-11-26T08:28:16.380Z,83.47
2018-11-26T08:30:44.729Z,83.19
2018-11-26T08:33:13.053Z,83.02
2018-11-26T08:35:41.403Z,82.93
2018-11-26T08:38:10.840Z,82.48
2018-11-26T08:40:37.792Z,82.27
2018-11-26T08:43:06.735Z,82.06
2018-11-26T08:45:35.023Z,81.89
2018-11-26T08:48:03.360Z,81.71
2018-11-26T08:50:31.802Z,81.64
2018-11-26T08:53:00.138Z,81.73
2018-11-26T08:55:28.451Z,81.85
2018-11-26T08:57:57.086Z,81.86
2018-11-26T09:00:25.403Z,81.96
2018-11-26T09:02:53.730Z,81.91
2018-11-26T09:05:24.122Z,81.83
2018-11-26T09:07:50.908Z,81.87
2018-11-26T09:10:19.003Z,81.83
2018-11-26T09:12:47.330Z,81.79
2018-11-26T09:15:15.695Z,81.66
2018-11-26T09:17:43.459Z,81.57
2018-11-26T09:20:11.780Z,81.37
2018-11-26T09:22:40.690Z,81.18
2018-11-26T09:25:09.017Z,81.09
2018-11-26T09:27:37.354Z,80.94
2018-11-26T09:30:06.097Z,80.87
2018-11-26T09:32:34.696Z,80.61
2018-11-26T09:35:02.443Z,80.42
2018-11-26T09:37:31.348Z,80.24
2018-11-26T09:39:59.097Z,80.31
2018-11-26T09:42:28.005Z,80.28
2018-11-26T09:44:55.751Z,80.41
2018-11-26T09:47:24.655Z,80.43
2018-11-26T09:49:52.410Z,80.43
2018-11-26T09:52:21.646Z,80.18
2018-11-26T09:54:50.001Z,79.75
2018-11-26T09:57:18.296Z,79.20
2018-11-26T09:59:46.630Z,78.86
2018-11-26T10:02:14.961Z,78.48
2018-11-26T10:04:42.725Z,78.28
2018-11-26T10:07:11.056Z,78.01
2018-11-26T10:09:39.960Z,77.70
2018-11-26T10:12:08.291Z,77.46
2018-11-26T10:14:36.607Z,77.31
2018-11-26T10:17:04.374Z,76.92
2018-11-26T10:19:32.846Z,76.63
2018-11-26T10:22:01.172Z,76.22
2018-11-26T10:24:30.092Z,75.99
2018-11-26T10:26:58.407Z,75.69
2018-11-26T10:29:26.170Z,75.75
2018-11-26T10:31:55.072Z,74.77
2018-11-26T10:34:23.618Z,73.60
2018-11-26T10:36:51.393Z,74.41
2018-11-26T10:39:20.304Z,72.72
2018-11-26T10:41:48.038Z,72.58
2018-11-26T10:44:16.950Z,72.47
2018-11-26T10:46:45.262Z,72.70
2018-11-26T10:49:13.587Z,71.89
2018-11-26T10:51:41.898Z,71.38
2018-11-26T10:54:09.651Z,70.43
2018-11-26T10:56:37.966Z,70.74
2018-11-26T10:59:06.289Z,70.17
2018-11-26T11:01:35.190Z,70.68
2018-11-26T11:04:02.931Z,69.35
2018-11-26T11:06:31.832Z,68.54
2018-11-26T11:08:59.567Z,68.97
2018-11-26T11:11:28.487Z,67.23
2018-11-26T11:13:56.224Z,66.87
2018-11-26T11:16:25.107Z,65.96
2018-11-26T11:18:53.443Z,65.21
2018-11-26T11:21:21.757Z,66.93
2018-11-26T11:23:49.499Z,66.34
2018-11-26T11:26:17.832Z,65.67
2018-11-26T11:28:46.708Z,64.50
2018-11-26T11:31:15.029Z,63.77
2018-11-26T11:33:43.346Z,62.93
2018-11-26T11:36:11.671Z,63.96
2018-11-26T11:38:39.976Z,62.50
2018-11-26T11:41:08.305Z,63.31
2018-11-26T11:43:36.620Z,63.50
2018-11-26T11:46:04.947Z,62.51
2018-11-26T11:48:33.266Z,62.22
2018-11-26T11:51:01.587Z,61.20
2018-11-26T11:53:29.963Z,61.72
2018-11-26T11:55:58.292Z,62.39
2018-11-26T11:58:26.620Z,60.34
2018-11-26T12:00:54.945Z,61.54
2018-11-26T12:03:23.279Z,60.29
2018-11-26T12:05:51.592Z,59.86
2018-11-26T12:08:19.913Z,60.31
2018-11-26T12:10:48.230Z,58.99
2018-11-26T12:13:16.566Z,57.10
2018-11-26T12:15:44.913Z,59.00
2018-11-26T12:18:13.542Z,57.91
2018-11-26T12:20:41.878Z,58.53
2018-11-26T12:23:10.213Z,58.35
2018-11-26T12:25:38.536Z,58.64
2018-11-26T12:28:06.873Z,57.56
2018-11-26T12:30:35.185Z,57.30
2018-11-26T12:33:03.507Z,58.10
2018-11-26T12:35:31.825Z,56.96
2018-11-26T12:38:00.148Z,56.85
2018-11-26T12:40:28.471Z,57.97
2018-11-26T12:42:56.781Z,57.97
2018-11-26T12:45:25.101Z,57.81
2018-11-26T12:47:53.420Z,57.41
2018-11-26T12:50:21.762Z,56.76
2018-11-26T12:52:50.902Z,56.62
2018-11-26T12:55:19.231Z,56.43
2018-11-26T12:57:47.547Z,56.44
2018-11-26T13:00:15.855Z,56.63
2018-11-26T13:02:44.186Z,56.57
2018-11-26T13:05:12.495Z,56.26
2018-11-26T13:07:40.815Z,56.11
2018-11-26T13:10:09.151Z,55.79
2018-11-26T13:12:37.463Z,56.95
2018-11-26T13:15:05.789Z,56.79
2018-11-26T13:17:34.114Z,57.02
2018-11-26T13:20:02.455Z,57.80
2018-11-26T13:22:30.801Z,57.40
2018-11-26T13:24:59.129Z,57.12
2018-11-26T13:27:27.444Z,56.74
2018-11-26T13:29:55.772Z,56.25
2018-11-26T13:32:24.093Z,56.63
2018-11-26T13:34:52.420Z,56.67
2018-11-26T13:37:20.754Z,56.85
2018-11-26T13:39:49.087Z,56.48
2018-11-26T13:42:17.418Z,55.87
2018-11-26T13:44:45.750Z,56.34
2018-11-26T13:47:14.079Z,56.83
2018-11-26T13:49:42.404Z,56.29
2018-11-26T13:52:10.738Z,56.10
2018-11-26T13:54:39.063Z,56.88
2018-11-26T13:57:07.385Z,57.68
2018-11-26T13:59:35.716Z,58.72
2018-11-26T14:02:04.305Z,59.53
2018-11-26T14:04:32.635Z,59.93
2018-11-26T14:07:00.965Z,60.54
2018-11-26T14:09:29.297Z,60.89
2018-11-26T14:11:57.624Z,61.44
2018-11-26T14:14:25.951Z,62.30
2018-11-26T14:16:54.277Z,62.59
2018-11-26T14:19:22.613Z,63.57
2018-11-26T14:21:50.938Z,64.01
2018-11-26T14:24:19.279Z,64.21
2018-11-26T14:26:48.504Z,64.20
2018-11-26T14:29:16.839Z,64.83
2018-11-26T14:31:45.175Z,64.70
2018-11-26T14:34:13.521Z,63.96
2018-11-26T14:36:41.847Z,62.88
2018-11-26T14:39:10.190Z,62.78
2018-11-26T14:41:38.520Z,62.79
2018-11-26T14:44:08.138Z,61.95
2018-11-26T14:46:36.469Z,62.19
2018-11-26T14:49:05.071Z,62.01
2018-11-26T14:51:33.397Z,61.89
2018-11-26T14:54:01.723Z,62.19
2018-11-26T14:56:30.050Z,62.31
2018-11-26T14:58:58.386Z,62.33
2018-11-26T15:01:26.719Z,62.20
2018-11-26T15:03:55.061Z,62.81
2018-11-26T15:06:23.393Z,62.45
2018-11-26T15:08:51.722Z,62.21
2018-11-26T15:11:20.049Z,62.10
2018-11-26T15:13:48.379Z,61.82
2018-11-26T15:16:16.719Z,61.84
2018-11-26T15:18:45.042Z,61.89
2018-11-26T15:21:13.377Z,62.09
2018-11-26T15:23:41.707Z,61.55
2018-11-26T15:26:10.030Z,61.50
2018-11-26T15:28:38.357Z,61.56
2018-11-26T15:31:06.693Z,61.67
2018-11-26T15:33:35.020Z,61.82
2018-11-26T15:36:03.347Z,62.08
2018-11-26T15:38:31.677Z,62.30
2018-11-26T15:41:00.024Z,62.32
2018-11-26T15:43:28.360Z,61.49
2018-11-26T15:45:57.000Z,61.50
2018-11-26T15:48:25.317Z,61.63
2018-11-26T15:50:53.974Z,61.47
2018-11-26T15:53:22.312Z,61.82
2018-11-26T15:55:50.664Z,62.62
2018-11-26T15:58:23.589Z,62.29
2018-11-26T16:00:47.334Z,62.50
2018-11-26T16:03:15.667Z,62.22
2018-11-26T16:05:44.002Z,62.21
2018-11-26T16:08:12.332Z,62.26
2018-11-26T16:10:40.661Z,62.59
2018-11-26T16:13:08.983Z,62.35
2018-11-26T16:15:37.312Z,62.08
2018-11-26T16:18:05.659Z,62.54
2018-11-26T16:20:33.997Z,62.96
2018-11-26T16:23:02.335Z,63.22
2018-11-26T16:25:30.675Z,63.56
2018-11-26T16:27:59.031Z,63.67
2018-11-26T16:30:27.374Z,63.93
2018-11-26T16:32:55.711Z,64.12
2018-11-26T16:35:24.046Z,64.74
2018-11-26T16:37:52.376Z,65.09
2018-11-26T16:40:20.814Z,65.55
2018-11-26T16:42:49.101Z,65.50
2018-11-26T16:45:17.435Z,65.70
2018-11-26T16:47:45.753Z,65.40
2018-11-26T16:50:14.099Z,65.90
2018-11-26T16:52:43.057Z,65.92
2018-11-26T16:55:11.399Z,65.68
2018-11-26T16:57:40.862Z,65.55
2018-11-26T17:00:08.318Z,65.91
2018-11-26T17:02:43.667Z,65.83
2018-11-26T17:05:12.033Z,65.29
2018-11-26T17:07:40.702Z,65.59
2018-11-26T17:10:08.807Z,65.72
2018-11-26T17:12:37.464Z,66.03
2018-11-26T17:15:07.808Z,66.09
2018-11-26T17:17:36.177Z,66.51
2018-11-26T17:20:04.498Z,66.89
2018-11-26T17:22:32.874Z,67.07
2018-11-26T17:25:01.287Z,66.61
2018-11-26T17:27:29.667Z,66.77
2018-11-26T17:29:58.135Z,67.16
2018-11-26T17:32:26.844Z,67.23
2018-11-26T17:34:55.447Z,67.35
2018-11-26T17:37:24.202Z,67.69
2018-11-26T17:39:52.860Z,68.08
2018-11-26T17:42:21.551Z,68.40
2018-11-26T17:44:49.878Z,68.40
2018-11-26T17:47:18.200Z,68.36
2018-11-26T17:49:46.551Z,68.48
2018-11-26T17:52:14.931Z,68.81
2018-11-26T17:54:43.253Z,69.02
2018-11-26T17:57:11.588Z,69.55
2018-11-26T17:59:39.992Z,69.46
2018-11-26T18:02:08.322Z,68.94
2018-11-26T18:04:36.680Z,68.92
2018-11-26T18:07:05.017Z,69.36
2018-11-26T18:09:33.353Z,69.23
2018-11-26T18:12:01.704Z,69.10
2018-11-26T18:14:30.101Z,69.68
2018-11-26T18:16:58.495Z,69.95
2018-11-26T18:19:26.978Z,70.05
2018-11-26T18:21:55.333Z,69.89
2018-11-26T18:24:24.014Z,70.10
2018-11-26T18:26:52.351Z,70.41
2018-11-26T18:29:20.680Z,70.74
2018-11-26T18:31:49.116Z,70.14
2018-11-26T18:34:17.494Z,69.79
2018-11-26T18:36:45.844Z,69.70
2018-11-26T18:39:14.182Z,69.65
2018-11-26T18:41:42.519Z,69.73
2018-11-26T18:44:10.852Z,69.58
2018-11-26T18:46:39.194Z,69.84
2018-11-26T18:49:08.642Z,69.98
2018-11-26T18:51:36.975Z,70.21
2018-11-26T18:54:05.394Z,70.31
2018-11-26T18:56:33.752Z,70.14
2018-11-26T18:59:02.147Z,69.82
2018-11-26T19:01:30.541Z,70.25
2018-11-26T19:03:59.295Z,70.01
2018-11-26T19:06:27.653Z,69.88
2018-11-26T19:08:56.331Z,69.83
2018-11-26T19:11:24.671Z,70.43
2018-11-26T19:13:53.020Z,70.40
2018-11-26T19:16:21.731Z,70.75
2018-11-26T19:18:50.206Z,71.10
2018-11-26T19:21:18.576Z,71.37
2018-11-26T19:23:46.924Z,71.73
2018-11-26T19:26:15.265Z,71.52
2018-11-26T19:28:43.679Z,71.78
2018-11-26T19:31:12.055Z,72.01
2018-11-26T19:33:40.393Z,71.69
2018-11-26T19:36:10.109Z,71.43
2018-11-26T19:38:38.587Z,71.34
2018-11-26T19:41:06.800Z,71.72
2018-11-26T19:43:35.151Z,72.00
2018-11-26T19:46:03.494Z,71.65
2018-11-26T19:48:31.931Z,71.78
2018-11-26T19:51:00.363Z,72.01
2018-11-26T19:53:28.706Z,71.88
2018-11-26T19:55:57.012Z,72.20
2018-11-26T19:58:25.374Z,72.33
2018-11-26T20:00:53.744Z,72.65
2018-11-26T20:03:22.069Z,72.66
2018-11-26T20:05:50.409Z,72.36
2018-11-26T20:08:18.767Z,72.16
2018-11-26T20:10:47.072Z,72.16
2018-11-26T20:13:15.520Z,71.92
2018-11-26T20:15:43.754Z,72.27
2018-11-26T20:18:12.089Z,72.18
2018-11-26T20:20:40.473Z,72.59
2018-11-26T20:23:08.800Z,72.54
2018-11-26T20:25:37.152Z,72.39
2018-11-26T20:28:05.481Z,72.60
2018-11-26T20:30:33.823Z,72.50
2018-11-26T20:33:02.374Z,72.75
2018-11-26T20:35:30.747Z,72.87
2018-11-26T20:37:59.080Z,72.84
2018-11-26T20:40:28.207Z,73.16
2018-11-26T20:42:56.822Z,73.26
2018-11-26T20:45:25.185Z,73.24
2018-11-26T20:47:53.580Z,73.41
2018-11-26T20:50:21.910Z,73.72
2018-11-26T20:52:50.244Z,73.78
2018-11-26T20:55:18.808Z,73.87
2018-11-26T20:57:46.957Z,73.80
2018-11-26T21:00:15.267Z,73.77
2018-11-26T21:02:43.645Z,74.32
2018-11-26T21:05:11.977Z,74.48
2018-11-26T21:07:40.312Z,74.49
2018-11-26T21:10:08.660Z,74.75
2018-11-26T21:12:37.105Z,74.75
2018-11-26T21:15:05.433Z,74.65
2018-11-26T21:17:33.782Z,74.58
2018-11-26T21:20:02.114Z,74.45
2018-11-26T21:22:30.440Z,75.04
2018-11-26T21:24:58.768Z,75.02
2018-11-26T21:27:27.093Z,75.13
2018-11-26T21:29:55.417Z,75.37
2018-11-26T21:32:23.754Z,75.41
2018-11-26T21:34:52.085Z,75.89
2018-11-26T21:37:20.441Z,75.86
2018-11-26T21:39:48.789Z,76.02
2018-11-26T21:42:17.129Z,75.96
2018-11-26T21:44:45.485Z,75.92
2018-11-26T21:47:13.805Z,76.18
2018-11-26T21:49:42.144Z,76.33
2018-11-26T21:52:10.465Z,76.44
2018-11-26T21:54:38.843Z,76.28
2018-11-26T21:57:07.180Z,76.66
2018-11-26T21:59:35.532Z,76.85
2018-11-26T22:02:03.959Z,76.53
2018-11-26T22:04:32.303Z,76.45
2018-11-26T22:07:00.634Z,76.09
2018-11-26T22:09:29.019Z,76.55
2018-11-26T22:39:24.928Z,76.51
2018-11-26T22:41:53.254Z,76.54
2018-11-26T22:44:21.992Z,76.43
2018-11-26T22:46:50.316Z,76.37
2018-11-26T22:49:18.652Z,76.41
2018-11-26T22:51:51.273Z,76.40
2018-11-26T22:54:15.345Z,76.42
2018-11-26T22:56:43.668Z,76.43
2018-11-26T22:59:11.998Z,76.70
2018-11-26T23:01:40.328Z,77.20
2018-11-26T23:04:08.654Z,77.35
2018-11-26T23:06:36.984Z,77.34
2018-11-26T23:09:05.314Z,77.51
2018-11-26T23:11:33.651Z,77.67
2018-11-26T23:14:01.979Z,77.76
2018-11-26T23:16:30.304Z,77.67
2018-11-26T23:18:58.629Z,77.82
2018-11-26T23:21:26.953Z,77.93
2018-11-26T23:23:55.280Z,78.12
2018-11-26T23:26:23.608Z,77.88
2018-11-26T23:28:51.936Z,77.79
2018-11-26T23:31:20.258Z,77.99
2018-11-26T23:33:48.589Z,77.88
2018-11-26T23:36:16.914Z,77.78
2018-11-26T23:38:45.245Z,77.71
2018-11-26T23:41:13.592Z,77.68
2018-11-26T23:43:41.936Z,77.94
2018-11-26T23:46:10.251Z,77.92
2018-11-26T23:48:38.584Z,77.99
2018-11-26T23:51:06.916Z,78.10
2018-11-26T23:53:35.248Z,78.06
2018-11-26T23:56:03.579Z,77.98
2018-11-26T23:58:31.902Z,77.70
